Portada
METAR-TAF:

METAR-TAF

Aeroports :

Tennant Creek, Austràlia

latitud: 19-38-04S, longitud: 134-11-00E, altitud: 377 m

Observació

L'informe es va fer fa 1 hora i 7 minuts, a les 19:00 UTC
Vent 17 kt del Est/Sud-Est
Temperatura 24°C
Humitat 13%
Pressió 1015 hPa
Visibilitat 10 km o més

METAR: YTNK 131900Z AUTO 11017KT 9999 // NCD 24/M06 Q1015

Hora: 05:37 (20:07 UTC)

Pronòstic

L'informe es va fer fa 42 minuts, a les 19:25 UTC
Pronòstic vàlid del 13 a les 20 UTC al 14 a les 08 UTC
Vent 18 kt del Est/Sud-Est amb ràfegues de 28 kt
Visibilitat 10 km o més
sense núvols per sota de 1500 mi sense presència de cumulonimbus.
A partir de les 14 a les 0300 UTC
Vent 12 kt del Sud/Sud-Est
Visibilitat 10 km o més
sense núvols per sota de 1500 mi sense presència de cumulonimbus.

TAF: YTNK 131925Z 1320/1408 12018G28KT CAVOK FM140300 16012KT CAVOK

Observacions i pronòstics meteorològics de més de 4000 aeroports (METAR i TAF).

Les estacions disponibles són els punts grocs i vermells al mapa.

Posi el ratolí al punt desitjat per veure el nom de l'estació.

Feu clic per veure les observacions i els pronòstics meteorològics.

Per canviar el mapa: feu clic els botons verds amb una creu de color negre per apropar; al botó verd amb un guió per allunyar la imatge; o en les fletxes verdes per a mapes adjacents.


METAR-TAF: